Beach Center, California
Current Conditions -  °F | °C
As of 1:58 AM on Sunday 21 Dec 2014 (Local Time) from KSLI Reporting Station
Overcast Overcast  
Wind Chill: 55°   Ceiling: 1500
Heat Index: 55°   Visibility: 10mi
Dew Point: 50°   Wind: 6mph
Humidity: 85%   Direction: 40°NE
Pressure: 30.14"   Gusts: NA
Location:  33.6784°N, 118.005°W
Report Text: KSLI 210958Z AUTO 04005KT 10SM OVC015 13/10 A3014 RMK AO2 OVC V BKN SLP209 T01250101
Loading
Personal Weather Stations






























Interactive Weather Map New forecast layout! Learn more

10-Day Weather Forecast

Advertisements
Track Severe Weather on mobile